Time;durP1;ratioP1;P1;durP2;ratioP2;P2;SDS_P1;SDS_P2;PMS_P1;PMS_P2;Temp;Humidity;BMP_temperature;BMP_pressure;BME280_temperature;BME280_humidity;BME280_pressure;Samples;Min_cycle;Max_cycle;Signal;HPM_P1;HPM_P2
2021/08/02 00:00:15;;;;;;;5.68;3.28;;;22.20;73.40;;;;;;5113091;28;20023;-74
2021/08/02 00:02:50;;;;;;;5.18;3.03;;;22.20;73.50;;;;;;5112952;28;20027;-74
2021/08/02 00:05:21;;;;;;;3.80;3.13;;;22.20;73.70;;;;;;5113046;28;20479;-74
2021/08/02 00:07:59;;;;;;;7.00;3.22;;;22.20;73.90;;;;;;5112808;28;20028;-73
2021/08/02 00:10:31;;;;;;;7.28;3.05;;;22.20;73.80;;;;;;5112556;28;20042;-73
2021/08/02 00:13:05;;;;;;;7.28;2.72;;;22.20;73.60;;;;;;5112651;28;20479;-74
2021/08/02 00:15:31;;;;;;;6.20;3.50;;;22.20;73.60;;;;;;5112692;28;20445;-74
2021/08/02 00:17:57;;;;;;;4.88;2.83;;;22.10;73.70;;;;;;5112546;28;20025;-74
2021/08/02 00:20:29;;;;;;;8.48;3.25;;;22.10;73.60;;;;;;5113301;28;20028;-74
2021/08/02 00:22:57;;;;;;;6.63;2.60;;;22.00;73.50;;;;;;5112465;28;20032;-73
2021/08/02 00:25:23;;;;;;;6.30;3.10;;;22.00;73.50;;;;;;5111411;28;20183;-73
2021/08/02 00:27:51;;;;;;;6.50;3.42;;;22.00;73.30;;;;;;5112539;28;20035;-73
2021/08/02 00:30:17;;;;;;;7.45;2.90;;;22.00;73.50;;;;;;5112431;28;20035;-73
2021/08/02 00:32:43;;;;;;;8.02;3.50;;;21.90;73.50;;;;;;5112133;28;20020;-73
2021/08/02 00:35:09;;;;;;;8.85;2.42;;;21.90;73.40;;;;;;5111866;28;20164;-73
2021/08/02 00:37:56;;;;;;;8.93;3.00;;;21.90;73.30;;;;;;5112741;28;20019;-73
2021/08/02 00:40:46;;;;;;;4.95;3.00;;;21.90;73.00;;;;;;5112343;28;20024;-73
2021/08/02 00:43:29;;;;;;;4.00;2.60;;;21.90;73.20;;;;;;5112314;28;20114;-73
2021/08/02 00:45:56;;;;;;;5.55;2.80;;;21.90;73.00;;;;;;5112107;28;20030;-73
2021/08/02 00:48:27;;;;;;;6.63;2.90;;;21.80;73.00;;;;;;5112093;28;20028;-73
2021/08/02 00:50:57;;;;;;;3.70;2.30;;;21.80;72.90;;;;;;5112170;28;20024;-73
2021/08/02 00:53:25;;;;;;;4.78;2.30;;;21.80;72.70;;;;;;5111648;28;20051;-73
2021/08/02 00:55:59;;;;;;;7.50;2.47;;;21.80;72.80;;;;;;5111681;28;20486;-73
2021/08/02 00:58:30;;;;;;;8.05;2.70;;;21.70;73.10;;;;;;5110389;28;20028;-73
2021/08/02 01:00:57;;;;;;;5.10;2.28;;;21.70;73.20;;;;;;5109211;28;20031;-73
2021/08/02 01:03:23;;;;;;;4.20;2.72;;;21.70;73.30;;;;;;5109680;28;20039;-73
2021/08/02 01:05:52;;;;;;;5.63;2.33;;;21.70;73.20;;;;;;5110852;28;20024;-73
2021/08/02 01:08:22;;;;;;;5.80;2.50;;;21.70;73.20;;;;;;5111771;28;20035;-73
2021/08/02 01:10:55;;;;;;;4.97;2.60;;;21.70;73.20;;;;;;5111794;28;20126;-73
2021/08/02 01:13:24;;;;;;;4.45;2.60;;;21.70;73.00;;;;;;5112099;28;20122;-73
2021/08/02 01:15:53;;;;;;;4.97;2.47;;;21.60;72.70;;;;;;5111290;28;20023;-73
2021/08/02 01:18:21;;;;;;;8.43;2.63;;;21.60;72.70;;;;;;5111374;28;20024;-73
2021/08/02 01:20:52;;;;;;;3.95;2.17;;;21.60;72.70;;;;;;5111221;28;20030;-73
2021/08/02 01:23:19;;;;;;;4.43;2.42;;;21.60;72.70;;;;;;5111297;28;20028;-73
2021/08/02 01:25:44;;;;;;;6.35;2.50;;;21.60;73.00;;;;;;5112102;28;20031;-73
2021/08/02 01:28:13;;;;;;;4.57;2.55;;;21.60;73.00;;;;;;5109915;28;20023;-73
2021/08/02 01:30:44;;;;;;;5.90;2.40;;;21.60;73.00;;;;;;5110409;28;20127;-72
2021/08/02 01:33:09;;;;;;;6.72;2.47;;;21.60;73.30;;;;;;5111998;28;20019;-74
2021/08/02 01:35:38;;;;;;;6.93;2.38;;;21.60;73.10;;;;;;5111345;28;20026;-73
2021/08/02 01:38:04;;;;;;;5.72;2.28;;;21.60;72.80;;;;;;5111501;28;20030;-73
2021/08/02 01:40:31;;;;;;;5.22;2.30;;;21.50;72.40;;;;;;5111230;28;20031;-73
2021/08/02 01:42:57;;;;;;;4.80;2.92;;;21.50;72.60;;;;;;5110761;28;20038;-73
2021/08/02 01:45:23;;;;;;;7.15;3.38;;;21.50;73.20;;;;;;5113644;28;20040;-72
2021/08/02 01:47:56;;;;;;;10.75;3.42;;;21.50;73.00;;;;;;5115354;28;20065;-73
2021/08/02 01:50:28;;;;;;;9.93;3.55;;;21.40;73.40;;;;;;5115203;28;20066;-72
2021/08/02 01:53:08;;;;;;;5.32;3.65;;;21.40;73.70;;;;;;5113713;28;20475;-72
2021/08/02 01:55:34;;;;;;;6.50;3.40;;;21.40;73.90;;;;;;5115428;28;20482;-72
2021/08/02 01:58:04;;;;;;;5.88;3.33;;;21.40;74.10;;;;;;5115377;28;20019;-73
2021/08/02 02:00:33;;;;;;;8.15;3.47;;;21.40;74.30;;;;;;5115156;28;20085;-73
2021/08/02 02:03:02;;;;;;;5.15;3.30;;;21.40;74.30;;;;;;5115408;28;20080;-73
2021/08/02 02:05:35;;;;;;;7.18;3.42;;;21.40;74.40;;;;;;5115380;28;20016;-73
2021/08/02 02:08:12;;;;;;;8.38;3.58;;;21.40;74.50;;;;;;5115210;28;20031;-73
2021/08/02 02:10:42;;;;;;;6.25;3.60;;;21.40;74.70;;;;;;5115064;28;20035;-73
2021/08/02 02:13:16;;;;;;;6.20;3.40;;;21.40;74.70;;;;;;5115223;28;20322;-73
2021/08/02 02:15:54;;;;;;;5.57;3.28;;;21.40;74.50;;;;;;5114866;28;20016;-73
2021/08/02 02:18:22;;;;;;;7.50;3.78;;;21.30;74.40;;;;;;5114952;28;20369;-73
2021/08/02 02:20:49;;;;;;;7.70;3.28;;;21.30;74.40;;;;;;5115496;28;20486;-73
2021/08/02 02:23:16;;;;;;;7.45;3.35;;;21.30;74.10;;;;;;5115287;28;20129;-73
2021/08/02 02:25:43;;;;;;;5.25;3.40;;;21.20;74.20;;;;;;5114600;28;20149;-73
2021/08/02 02:28:10;;;;;;;4.50;3.10;;;21.20;74.20;;;;;;5114587;28;20103;-73
2021/08/02 02:30:37;;;;;;;5.00;3.22;;;21.20;74.20;;;;;;5114425;28;20080;-73
2021/08/02 02:33:05;;;;;;;5.10;2.97;;;21.10;74.10;;;;;;5115016;28;20038;-73
2021/08/02 02:35:32;;;;;;;6.75;2.80;;;21.10;74.30;;;;;;5114684;28;20055;-74
2021/08/02 02:37:59;;;;;;;4.18;2.65;;;21.10;74.60;;;;;;5114444;28;20063;-73
2021/08/02 02:40:26;;;;;;;7.20;2.95;;;21.10;74.60;;;;;;5114928;28;20042;-74
2021/08/02 02:42:52;;;;;;;7.13;2.50;;;21.10;74.50;;;;;;5114345;28;20036;-73
2021/08/02 02:45:18;;;;;;;7.22;2.40;;;21.10;74.20;;;;;;5114607;28;20031;-73
2021/08/02 02:47:45;;;;;;;4.68;2.28;;;21.00;74.10;;;;;;5115006;28;20074;-73
2021/08/02 02:50:11;;;;;;;4.90;2.65;;;21.00;73.80;;;;;;5113012;28;20019;-73
2021/08/02 02:52:38;;;;;;;3.22;2.33;;;21.00;73.90;;;;;;5114806;28;20224;-73
2021/08/02 02:55:05;;;;;;;5.60;2.00;;;20.90;73.80;;;;;;5114458;28;20015;-73
2021/08/02 02:57:31;;;;;;;6.57;2.13;;;20.90;73.90;;;;;;5113510;28;20035;-74
2021/08/02 02:59:57;;;;;;;4.55;2.20;;;20.90;73.90;;;;;;5113234;28;20364;-73
2021/08/02 03:02:24;;;;;;;6.38;1.98;;;20.90;73.90;;;;;;5114339;28;20030;-73
2021/08/02 03:04:56;;;;;;;2.45;1.95;;;20.80;73.90;;;;;;5113840;28;20054;-73
2021/08/02 03:07:22;;;;;;;5.75;2.60;;;20.80;73.70;;;;;;5113675;28;20023;-73
2021/08/02 03:09:49;;;;;;;4.82;2.20;;;20.80;74.00;;;;;;5113638;28;20019;-73
2021/08/02 03:12:15;;;;;;;2.92;2.10;;;20.80;73.90;;;;;;5113903;28;20305;-74
2021/08/02 03:14:41;;;;;;;4.80;2.33;;;20.80;73.60;;;;;;5114019;28;20646;-73
2021/08/02 03:17:08;;;;;;;5.40;2.50;;;20.80;73.50;;;;;;5113579;28;20023;-73
2021/08/02 03:19:35;;;;;;;6.20;2.38;;;20.90;73.60;;;;;;5113651;28;20023;-73
2021/08/02 03:22:09;;;;;;;5.50;1.90;;;20.90;73.50;;;;;;5113451;28;20034;-73
2021/08/02 03:24:42;;;;;;;3.78;2.20;;;20.80;73.40;;;;;;5113841;28;20401;-73
2021/08/02 03:27:33;;;;;;;4.45;2.10;;;20.90;73.40;;;;;;5113785;28;20016;-73
2021/08/02 03:30:04;;;;;;;2.88;2.30;;;20.80;73.30;;;;;;5113370;28;20058;-73
2021/08/02 03:32:33;;;;;;;3.53;2.17;;;20.90;73.20;;;;;;5113420;28;20044;-73
2021/08/02 03:35:06;;;;;;;3.05;2.10;;;20.90;73.10;;;;;;5113092;28;20032;-73
2021/08/02 03:37:33;;;;;;;3.40;2.10;;;20.90;73.40;;;;;;5113601;28;20020;-73
2021/08/02 03:40:01;;;;;;;3.95;2.40;;;20.90;73.70;;;;;;5113161;28;20034;-73
2021/08/02 03:42:28;;;;;;;4.00;2.30;;;20.90;73.80;;;;;;5113695;28;20101;-73
2021/08/02 03:44:54;;;;;;;4.00;2.00;;;20.90;73.20;;;;;;5113189;28;20103;-73
2021/08/02 03:47:20;;;;;;;4.30;2.17;;;20.90;73.00;;;;;;5113340;28;20039;-73
2021/08/02 03:49:47;;;;;;;3.53;2.20;;;20.80;73.00;;;;;;5113704;28;20028;-73
2021/08/02 03:52:13;;;;;;;4.90;2.25;;;20.80;73.30;;;;;;5113248;28;20031;-73
2021/08/02 03:54:39;;;;;;;8.07;3.40;;;20.80;73.60;;;;;;5113260;28;20027;-72
2021/08/02 03:57:05;;;;;;;5.57;4.57;;;20.80;73.50;;;;;;5113236;28;20024;-73
2021/08/02 03:59:31;;;;;;;3.85;3.45;;;20.80;73.40;;;;;;5113438;28;20038;-72
2021/08/02 04:01:57;;;;;;;4.78;3.47;;;20.80;73.70;;;;;;5112882;28;20016;-72
2021/08/02 04:04:22;;;;;;;6.53;3.25;;;20.80;74.10;;;;;;5112450;28;20036;-72
2021/08/02 04:06:48;;;;;;;4.00;3.03;;;20.80;74.20;;;;;;5112961;28;20035;-72
2021/08/02 04:09:14;;;;;;;4.97;2.75;;;20.90;74.20;;;;;;5113545;28;20519;-73
2021/08/02 04:11:42;;;;;;;4.43;2.40;;;20.80;74.10;;;;;;5112793;28;20548;-73
2021/08/02 04:14:08;;;;;;;2.67;2.40;;;20.80;74.50;;;;;;5113071;28;20024;-73
2021/08/02 04:16:35;;;;;;;4.80;2.53;;;20.80;74.30;;;;;;5112854;28;20046;-73
2021/08/02 04:19:00;;;;;;;3.58;2.28;;;20.80;74.40;;;;;;5112774;28;20130;-73
2021/08/02 04:21:26;;;;;;;3.38;2.10;;;20.80;74.50;;;;;;5112574;28;20098;-73
2021/08/02 04:23:54;;;;;;;4.60;2.28;;;20.80;74.40;;;;;;5112161;28;20032;-73
2021/08/02 04:26:20;;;;;;;4.30;2.53;;;20.80;74.40;;;;;;5112247;28;20122;-73
2021/08/02 04:28:46;;;;;;;3.65;2.20;;;20.80;74.50;;;;;;5111134;28;20024;-73
2021/08/02 04:31:12;;;;;;;4.50;2.05;;;20.80;74.40;;;;;;5112388;28;20027;-73
2021/08/02 04:33:38;;;;;;;3.53;2.30;;;20.80;74.30;;;;;;5112546;28;20019;-72
2021/08/02 04:36:04;;;;;;;4.00;2.47;;;20.80;74.30;;;;;;5112570;28;20490;-73
2021/08/02 04:38:31;;;;;;;3.42;2.03;;;20.80;74.10;;;;;;5114152;28;20020;-73
2021/08/02 04:40:56;;;;;;;3.15;2.28;;;20.80;74.00;;;;;;5114036;28;20085;-73
2021/08/02 04:43:23;;;;;;;3.58;2.47;;;20.80;74.30;;;;;;5113897;28;20059;-73
2021/08/02 04:45:48;;;;;;;3.20;2.38;;;20.80;74.30;;;;;;5113721;28;20428;-73
2021/08/02 04:48:14;;;;;;;3.15;2.08;;;20.80;74.40;;;;;;5113835;28;20029;-72
2021/08/02 04:50:43;;;;;;;4.43;2.50;;;20.80;74.30;;;;;;5112949;28;20046;-73
2021/08/02 04:53:09;;;;;;;7.15;2.28;;;20.80;74.60;;;;;;5113322;28;20077;-73
2021/08/02 04:55:34;;;;;;;6.28;2.47;;;20.80;74.60;;;;;;5113567;28;20038;-73
2021/08/02 04:58:00;;;;;;;3.17;2.22;;;20.90;74.60;;;;;;5113545;28;20413;-73
2021/08/02 05:00:26;;;;;;;3.65;2.13;;;20.90;74.30;;;;;;5113629;28;20023;-73
2021/08/02 05:02:51;;;;;;;4.93;2.65;;;20.90;73.90;;;;;;5112561;28;20475;-73
2021/08/02 05:05:17;;;;;;;6.53;2.53;;;20.90;73.70;;;;;;5112545;28;20433;-73
2021/08/02 05:07:43;;;;;;;3.65;2.50;;;21.00;73.60;;;;;;5111811;28;20035;-74
2021/08/02 05:10:09;;;;;;;4.82;2.40;;;21.00;73.80;;;;;;5112592;28;20051;-73
2021/08/02 05:12:34;;;;;;;2.70;2.17;;;21.00;73.50;;;;;;5111539;28;20047;-74
2021/08/02 05:15:09;;;;;;;4.95;2.35;;;21.00;73.80;;;;;;5112129;28;20028;-73
2021/08/02 05:17:35;;;;;;;6.38;2.60;;;21.00;73.60;;;;;;5111593;28;20023;-74
2021/08/02 05:20:01;;;;;;;5.47;2.40;;;21.00;73.50;;;;;;5112169;28;20027;-72
2021/08/02 05:22:27;;;;;;;4.32;2.22;;;21.10;73.70;;;;;;5111820;28;20119;-73
2021/08/02 05:24:53;;;;;;;3.92;2.40;;;21.10;73.80;;;;;;5111944;28;20024;-73
2021/08/02 05:27:19;;;;;;;3.05;2.20;;;21.10;73.90;;;;;;5112238;28;20012;-73
2021/08/02 05:29:44;;;;;;;5.05;2.20;;;21.10;73.80;;;;;;5111742;28;20023;-73
2021/08/02 05:32:10;;;;;;;2.03;1.83;;;21.20;74.10;;;;;;5111893;28;20487;-73
2021/08/02 05:34:40;;;;;;;3.60;1.98;;;21.30;74.10;;;;;;5112469;28;20037;-72
2021/08/02 05:37:09;;;;;;;4.57;1.92;;;21.30;73.60;;;;;;5112000;28;20035;-71
2021/08/02 05:39:35;;;;;;;6.63;2.03;;;21.30;73.10;;;;;;5113235;28;20047;-71
2021/08/02 05:42:01;;;;;;;5.43;2.22;;;21.40;72.50;;;;;;5113110;28;20482;-71
2021/08/02 05:44:28;;;;;;;4.18;2.00;;;21.40;72.40;;;;;;5112844;28;20118;-72
2021/08/02 05:46:54;;;;;;;3.53;2.15;;;21.40;72.50;;;;;;5113213;28;20102;-71
2021/08/02 05:49:19;;;;;;;6.95;1.90;;;21.40;72.10;;;;;;5113013;28;20032;-72
2021/08/02 05:51:46;;;;;;;1.85;1.73;;;21.50;71.90;;;;;;5112569;28;20023;-72
2021/08/02 05:54:12;;;;;;;2.75;1.77;;;21.50;71.80;;;;;;5111881;28;20092;-72
2021/08/02 05:56:38;;;;;;;3.03;1.77;;;21.60;71.90;;;;;;5112737;28;20043;-72
2021/08/02 05:59:04;;;;;;;2.92;1.73;;;21.60;71.30;;;;;;5113039;28;20368;-71
2021/08/02 06:01:29;;;;;;;2.30;1.90;;;21.70;70.50;;;;;;5111637;28;20036;-72
2021/08/02 06:03:55;;;;;;;3.58;1.90;;;21.80;70.20;;;;;;5111748;28;20078;-70
2021/08/02 06:06:21;;;;;;;3.70;1.92;;;21.80;70.90;;;;;;5113168;28;20047;-71
2021/08/02 06:08:46;;;;;;;3.53;2.30;;;21.90;70.40;;;;;;5113068;28;20031;-73
2021/08/02 06:11:13;;;;;;;4.65;1.95;;;22.00;70.30;;;;;;5112845;28;20032;-72
2021/08/02 06:13:39;;;;;;;5.53;2.00;;;22.00;70.70;;;;;;5112984;28;20024;-72
2021/08/02 06:16:04;;;;;;;7.53;2.20;;;22.10;70.50;;;;;;5112780;28;20019;-72
2021/08/02 06:18:30;;;;;;;4.55;1.90;;;22.20;70.20;;;;;;5109726;28;20024;-72
2021/08/02 06:20:56;;;;;;;7.18;2.10;;;22.20;70.10;;;;;;5110814;28;20039;-73
2021/08/02 06:23:22;;;;;;;3.67;2.15;;;22.20;69.90;;;;;;5112015;28;20047;-72
2021/08/02 06:25:48;;;;;;;3.67;2.25;;;22.30;70.10;;;;;;5112185;28;20016;-72
2021/08/02 06:28:13;;;;;;;3.35;2.10;;;22.30;70.30;;;;;;5111208;28;20100;-72
2021/08/02 06:30:42;;;;;;;4.18;2.00;;;22.40;70.50;;;;;;5111852;28;20380;-72
2021/08/02 06:33:08;;;;;;;4.78;2.40;;;22.50;70.60;;;;;;5113666;28;20506;-72
2021/08/02 06:35:37;;;;;;;4.15;2.20;;;22.50;70.20;;;;;;5116688;28;20016;-72
2021/08/02 06:38:04;;;;;;;6.40;2.47;;;22.60;69.80;;;;;;5115282;28;20769;-73
2021/08/02 06:40:30;;;;;;;4.95;2.40;;;22.60;69.50;;;;;;5112474;28;20035;-72
2021/08/02 06:43:05;;;;;;;7.57;2.53;;;22.60;69.40;;;;;;5114487;28;20391;-72
2021/08/02 06:48:29;;;;;;;;;;;22.70;69.20;;;;;;5108493;28;20031;-74
2021/08/02 06:51:19;;;;;;;3.83;2.30;;;22.70;68.90;;;;;;5116389;28;19903;-73
2021/08/02 06:53:45;;;;;;;4.13;2.15;;;22.80;68.80;;;;;;5036448;28;20036;-75
2021/08/02 06:56:20;;;;;;;3.35;2.42;;;22.90;68.90;;;;;;5107312;28;20440;-72
2021/08/02 06:58:45;;;;;;;3.55;2.78;;;22.90;68.70;;;;;;5116561;28;20472;-74
2021/08/02 07:01:14;;;;;;;6.13;2.40;;;22.90;68.70;;;;;;5116752;28;20073;-74
2021/08/02 07:04:04;;;;;;;3.92;2.50;;;23.00;68.50;;;;;;5113316;28;20078;-74
2021/08/02 07:06:57;;;;;;;3.95;2.35;;;23.00;68.40;;;;;;5105522;28;20066;-76
2021/08/02 07:09:32;;;;;;;3.05;2.17;;;23.00;67.80;;;;;;5115641;27;20097;-74
2021/08/02 07:12:00;;;;;;;5.25;2.53;;;23.10;67.30;;;;;;5116863;28;20449;-73
2021/08/02 07:14:29;;;;;;;4.45;2.50;;;23.10;66.80;;;;;;5117020;28;20114;-74
2021/08/02 07:16:54;;;;;;;3.55;2.10;;;23.20;66.90;;;;;;5116906;28;20028;-72
2021/08/02 07:19:26;;;;;;;4.93;2.42;;;23.20;66.30;;;;;;5116180;28;20077;-74
2021/08/02 07:21:52;;;;;;;4.90;2.38;;;23.30;66.20;;;;;;5116314;28;20011;-74
2021/08/02 07:24:17;;;;;;;8.98;2.58;;;23.30;66.20;;;;;;5114981;28;20051;-73
2021/08/02 07:26:43;;;;;;;3.50;2.20;;;23.40;66.40;;;;;;5115431;28;20020;-73
2021/08/02 07:29:09;;;;;;;3.92;2.08;;;23.40;66.60;;;;;;5115388;28;20031;-73
2021/08/02 07:31:34;;;;;;;4.32;1.70;;;23.50;65.10;;;;;;5115086;28;20015;-73
2021/08/02 07:34:00;;;;;;;2.10;1.83;;;23.50;63.30;;;;;;5115178;28;20337;-73
2021/08/02 07:36:26;;;;;;;6.22;2.22;;;23.60;63.20;;;;;;5115294;28;20403;-74
2021/08/02 07:38:52;;;;;;;218.10;12.82;;;23.60;63.70;;;;;;5115315;28;20036;-76
2021/08/02 07:41:18;;;;;;;13.23;2.40;;;23.70;63.70;;;;;;5114471;28;20096;-75
2021/08/02 07:43:44;;;;;;;4.07;1.73;;;23.70;63.60;;;;;;5114831;28;20115;-75
2021/08/02 07:46:12;;;;;;;3.13;1.73;;;23.80;63.90;;;;;;5115010;28;20099;-74
2021/08/02 07:48:38;;;;;;;4.38;1.88;;;23.80;63.70;;;;;;5114678;28;20019;-74
2021/08/02 07:51:04;;;;;;;2.58;1.63;;;23.80;63.70;;;;;;5114868;28;20110;-75
2021/08/02 07:53:30;;;;;;;5.47;1.60;;;23.90;63.00;;;;;;5114998;28;20056;-73
2021/08/02 07:55:56;;;;;;;5.38;2.10;;;24.00;62.20;;;;;;5114753;28;20459;-74
2021/08/02 07:58:21;;;;;;;5.38;1.90;;;24.00;62.40;;;;;;5114831;28;20043;-75
2021/08/02 08:00:47;;;;;;;5.00;2.10;;;24.00;62.00;;;;;;5114653;28;20099;-75
2021/08/02 08:03:13;;;;;;;6.68;2.28;;;24.00;61.50;;;;;;5112888;28;20097;-73
2021/08/02 08:05:39;;;;;;;6.45;1.90;;;24.10;61.10;;;;;;5114305;28;20034;-75
2021/08/02 08:08:05;;;;;;;2.38;1.60;;;24.10;60.90;;;;;;5113832;28;20107;-73
2021/08/02 08:10:31;;;;;;;3.28;1.67;;;24.10;60.30;;;;;;5114080;28;20107;-74
2021/08/02 08:12:56;;;;;;;3.25;1.90;;;24.10;60.30;;;;;;5114403;28;20035;-75
2021/08/02 08:15:24;;;;;;;3.47;2.08;;;24.20;60.30;;;;;;5113967;28;20484;-76
2021/08/02 08:17:50;;;;;;;2.72;1.70;;;24.10;59.90;;;;;;5114426;28;20103;-76
2021/08/02 08:20:18;;;;;;;6.78;1.65;;;24.10;60.20;;;;;;5114315;28;20098;-77
2021/08/02 08:22:44;;;;;;;2.08;1.60;;;24.10;60.60;;;;;;5114205;28;20027;-74
2021/08/02 08:25:10;;;;;;;2.67;1.67;;;;;;;;;;5113662;28;20114;-75
2021/08/02 08:27:36;;;;;;;7.43;1.70;;;24.10;60.20;;;;;;5114110;28;20016;-75
2021/08/02 08:30:04;;;;;;;2.95;1.63;;;24.10;60.50;;;;;;5114211;28;20030;-76
2021/08/02 08:32:29;;;;;;;2.75;1.55;;;24.10;60.60;;;;;;5113976;28;20020;-75
2021/08/02 08:34:55;;;;;;;4.15;1.60;;;24.10;60.40;;;;;;5113909;28;20397;-74
2021/08/02 08:37:21;;;;;;;4.25;1.50;;;24.10;60.00;;;;;;5111636;28;20059;-75
2021/08/02 08:39:46;;;;;;;3.53;1.60;;;24.10;60.00;;;;;;5110801;28;20028;-74
2021/08/02 08:42:15;;;;;;;3.05;1.70;;;24.10;59.90;;;;;;5111869;28;20023;-74
2021/08/02 08:44:42;;;;;;;3.03;1.58;;;24.20;60.00;;;;;;5112365;28;20073;-74
2021/08/02 08:47:11;;;;;;;5.28;1.65;;;24.10;60.10;;;;;;5114159;28;20027;-75
2021/08/02 08:49:37;;;;;;;2.35;1.70;;;24.10;59.90;;;;;;5113861;28;20379;-75
2021/08/02 08:52:04;;;;;;;3.42;1.20;;;24.20;59.90;;;;;;5114002;28;20145;-75
2021/08/02 08:54:33;;;;;;;3.83;1.77;;;24.20;59.90;;;;;;5113206;28;20028;-74
2021/08/02 08:56:59;;;;;;;3.05;1.40;;;24.20;60.10;;;;;;5114066;28;20536;-74
2021/08/02 08:59:25;;;;;;;4.05;1.40;;;24.20;59.80;;;;;;5113990;28;20047;-75
2021/08/02 09:02:03;;;;;;;4.35;1.75;;;24.20;59.30;;;;;;5113700;28;20474;-75
2021/08/02 09:04:30;;;;;;;1.30;1.20;;;24.20;59.50;;;;;;5113677;28;20074;-75
2021/08/02 09:07:00;;;;;;;3.17;1.58;;;24.10;60.10;;;;;;5113749;28;20023;-75
2021/08/02 09:09:31;;;;;;;2.05;1.25;;;24.10;59.10;;;;;;5113768;28;20495;-76
2021/08/02 09:12:08;;;;;;;5.93;1.42;;;24.20;58.70;;;;;;5113748;28;20070;-75
2021/08/02 09:14:34;;;;;;;2.65;1.20;;;24.20;58.80;;;;;;5112235;28;20027;-75
2021/08/02 09:17:01;;;;;;;3.20;1.30;;;24.20;58.50;;;;;;5112630;28;20055;-75
2021/08/02 09:19:43;;;;;;;2.85;1.48;;;24.20;58.50;;;;;;5113983;28;20023;-76
2021/08/02 09:22:08;;;;;;;3.33;1.50;;;24.20;58.60;;;;;;5113694;28;20035;-75
2021/08/02 09:24:35;;;;;;;3.58;1.38;;;24.20;58.70;;;;;;5113560;28;20027;-75
2021/08/02 09:27:01;;;;;;;4.65;1.63;;;24.20;58.80;;;;;;5113794;28;20483;-75
2021/08/02 09:29:31;;;;;;;0.93;0.90;;;24.20;57.50;;;;;;5113684;28;20034;-75
2021/08/02 09:31:57;;;;;;;2.40;1.38;;;24.30;57.50;;;;;;5113613;28;20528;-75
2021/08/02 09:34:23;;;;;;;3.42;1.27;;;24.40;57.30;;;;;;5113472;28;20023;-75
2021/08/02 09:36:59;;;;;;;3.83;1.40;;;24.50;56.10;;;;;;5113283;28;20106;-74
2021/08/02 09:39:30;;;;;;;4.57;1.58;;;24.50;55.80;;;;;;5113299;28;20380;-76
2021/08/02 09:42:04;;;;;;;5.82;1.45;;;24.60;55.70;;;;;;5113482;28;20421;-76
2021/08/02 09:44:30;;;;;;;2.38;1.20;;;24.80;56.10;;;;;;5113291;28;20036;-76
2021/08/02 09:47:01;;;;;;;5.03;1.30;;;24.90;56.20;;;;;;5113342;28;20030;-76
2021/08/02 09:49:31;;;;;;;2.65;1.30;;;25.00;55.60;;;;;;5113396;28;20023;-75
2021/08/02 09:51:57;;;;;;;4.93;1.30;;;25.10;55.50;;;;;;5113346;28;20472;-75
2021/08/02 09:54:27;;;;;;;2.00;1.13;;;25.20;55.40;;;;;;5113411;28;20024;-75
2021/08/02 09:56:54;;;;;;;3.20;1.15;;;25.30;56.00;;;;;;5112433;28;20027;-76
2021/08/02 09:59:21;;;;;;;4.72;1.10;;;25.40;54.30;;;;;;5113372;28;20027;-75
2021/08/02 10:01:51;;;;;;;6.20;1.40;;;25.40;54.10;;;;;;5113325;28;20055;-75
2021/08/02 10:04:18;;;;;;;5.22;1.05;;;25.40;53.70;;;;;;5112913;28;20510;-76
2021/08/02 10:06:44;;;;;;;3.20;1.15;;;25.40;53.40;;;;;;5115770;28;20023;-76
2021/08/02 10:09:14;;;;;;;6.13;1.08;;;25.30;53.30;;;;;;5117208;28;20026;-75
2021/08/02 10:11:42;;;;;;;1.65;1.02;;;25.30;54.00;;;;;;5117018;28;20040;-75
2021/08/02 10:14:12;;;;;;;3.92;1.27;;;25.20;53.80;;;;;;5116966;28;20055;-75
2021/08/02 10:16:43;;;;;;;2.80;0.90;;;25.10;54.10;;;;;;5117411;28;20360;-75
2021/08/02 10:19:11;;;;;;;1.48;1.15;;;25.00;54.50;;;;;;5117000;28;20098;-75
2021/08/02 10:21:45;;;;;;;2.22;1.15;;;25.00;55.10;;;;;;5117032;28;20387;-75
2021/08/02 10:24:13;;;;;;;2.92;1.10;;;24.90;55.50;;;;;;5116803;28;20044;-76
2021/08/02 10:26:40;;;;;;;2.25;1.00;;;24.80;55.80;;;;;;5116982;28;20468;-75
2021/08/02 10:29:07;;;;;;;3.65;1.15;;;24.80;56.30;;;;;;5116816;28;20026;-75
2021/08/02 10:31:47;;;;;;;3.78;1.10;;;24.80;56.30;;;;;;5116883;28;20020;-75
2021/08/02 10:34:17;;;;;;;3.45;1.33;;;24.70;55.80;;;;;;5116800;28;20015;-76
2021/08/02 10:37:04;;;;;;;1.00;0.90;;;24.70;55.00;;;;;;5114039;28;20032;-75
2021/08/02 10:39:32;;;;;;;7.82;1.75;;;24.60;55.10;;;;;;5113776;28;20115;-75
2021/08/02 10:42:10;;;;;;;2.97;1.23;;;24.60;55.80;;;;;;5115959;28;20089;-75
2021/08/02 10:44:36;;;;;;;5.60;1.20;;;24.50;59.10;;;;;;5113407;28;20570;-74
2021/08/02 10:47:05;;;;;;;4.07;1.10;;;24.40;60.60;;;;;;5113644;28;20077;-76
2021/08/02 10:49:31;;;;;;;2.10;1.15;;;24.30;58.80;;;;;;5114789;28;20114;-74
2021/08/02 10:51:57;;;;;;;2.55;1.08;;;24.30;58.20;;;;;;5116081;28;20024;-74
2021/08/02 10:54:24;;;;;;;8.10;1.40;;;24.20;58.10;;;;;;5116157;28;20023;-74
2021/08/02 10:56:51;;;;;;;3.33;1.50;;;24.20;59.80;;;;;;5116265;28;20447;-74
2021/08/02 10:59:18;;;;;;;2.90;1.60;;;24.10;62.20;;;;;;5116078;28;20418;-74
2021/08/02 11:01:52;;;;;;;7.97;1.63;;;24.10;63.90;;;;;;5116407;27;20046;-74
2021/08/02 11:04:21;;;;;;;4.18;1.90;;;24.00;65.40;;;;;;5115849;28;20110;-74
2021/08/02 11:06:48;;;;;;;5.03;2.38;;;23.90;65.80;;;;;;5112825;28;20047;-75
2021/08/02 11:09:26;;;;;;;3.53;2.08;;;23.80;66.10;;;;;;5113336;28;20019;-75
2021/08/02 11:12:03;;;;;;;5.78;2.05;;;23.70;66.20;;;;;;5115811;28;20088;-75
2021/08/02 11:14:29;;;;;;;7.00;1.58;;;23.60;65.90;;;;;;5115756;28;20023;-75
2021/08/02 11:16:55;;;;;;;4.70;1.80;;;23.50;65.80;;;;;;5115212;28;20084;-74
2021/08/02 11:19:25;;;;;;;4.43;1.60;;;23.30;65.90;;;;;;5115609;28;20027;-74
2021/08/02 11:22:00;;;;;;;6.15;1.40;;;23.30;65.50;;;;;;5115630;28;20160;-75
2021/08/02 11:24:31;;;;;;;3.63;1.45;;;23.20;65.70;;;;;;5115553;28;20027;-75
2021/08/02 11:27:10;;;;;;;5.13;1.30;;;23.20;66.30;;;;;;5115465;28;20027;-74
2021/08/02 11:29:36;;;;;;;2.47;1.50;;;23.10;65.80;;;;;;5115349;28;20020;-74
2021/08/02 11:32:13;;;;;;;7.55;2.05;;;23.00;65.90;;;;;;5115638;28;20108;-75
2021/08/02 11:34:41;;;;;;;3.35;1.30;;;23.00;66.00;;;;;;5115404;28;20468;-75
2021/08/02 11:37:13;;;;;;;5.88;1.30;;;23.00;65.70;;;;;;5115243;28;20394;-75
2021/08/02 11:39:40;;;;;;;2.33;1.20;;;23.00;65.70;;;;;;5115401;28;20026;-75
2021/08/02 11:42:14;;;;;;;7.57;1.63;;;23.10;65.70;;;;;;5114784;28;20452;-76
2021/08/02 11:44:45;;;;;;;3.83;1.67;;;23.20;65.70;;;;;;5114220;27;20136;-74
2021/08/02 11:47:15;;;;;;;2.67;1.27;;;23.30;65.20;;;;;;5114178;28;20031;-75
2021/08/02 11:49:42;;;;;;;2.10;1.48;;;23.40;64.10;;;;;;5115198;28;20035;-74
2021/08/02 11:52:09;;;;;;;2.47;1.40;;;23.50;64.10;;;;;;5113931;28;20024;-75
2021/08/02 11:54:35;;;;;;;2.35;1.10;;;23.60;64.30;;;;;;5112942;28;20472;-75
2021/08/02 11:57:01;;;;;;;2.08;1.05;;;23.80;63.50;;;;;;5113595;28;20027;-75
2021/08/02 11:59:30;;;;;;;1.83;1.05;;;24.00;62.60;;;;;;5112260;28;20031;-74
2021/08/02 12:02:01;;;;;;;4.70;1.00;;;24.10;62.40;;;;;;5114495;28;20491;-75
2021/08/02 12:04:28;;;;;;;1.95;0.90;;;24.30;61.70;;;;;;5113764;28;20036;-75
2021/08/02 12:06:56;;;;;;;3.53;1.17;;;24.60;61.40;;;;;;5114629;28;20027;-75
2021/08/02 12:09:37;;;;;;;4.78;1.40;;;24.80;60.70;;;;;;5114223;28;20102;-74
2021/08/02 12:12:05;;;;;;;3.30;1.15;;;25.00;60.00;;;;;;5113783;27;20048;-75
2021/08/02 12:14:32;;;;;;;1.90;1.05;;;25.10;58.40;;;;;;5114511;28;20024;-74
2021/08/02 12:17:10;;;;;;;3.20;0.85;;;25.20;58.50;;;;;;5114534;28;20020;-74
2021/08/02 12:19:47;;;;;;;2.58;1.13;;;25.30;58.90;;;;;;5113208;28;20027;-74
2021/08/02 12:22:14;;;;;;;5.93;0.93;;;25.40;58.20;;;;;;5114277;28;20391;-73
2021/08/02 12:24:52;;;;;;;5.75;1.35;;;25.50;58.90;;;;;;5114459;28;20036;-74
2021/08/02 12:27:19;;;;;;;3.08;1.20;;;25.60;58.00;;;;;;5114385;28;20023;-73
2021/08/02 12:29:56;;;;;;;4.22;1.35;;;25.70;57.50;;;;;;5113044;28;20027;-74
2021/08/02 12:32:51;;;;;;;2.92;1.00;;;25.70;57.50;;;;;;5114573;28;20058;-73
2021/08/02 12:35:17;;;;;;;3.72;0.93;;;25.70;57.50;;;;;;5117267;27;20109;-74
2021/08/02 12:37:45;;;;;;;2.63;0.93;;;25.70;57.50;;;;;;5134541;27;20030;-73
2021/08/02 12:40:16;;;;;;;1.52;0.85;;;25.70;56.70;;;;;;5134372;27;20031;-73
2021/08/02 12:42:44;;;;;;;3.35;0.93;;;25.80;56.90;;;;;;5134174;27;20106;-74
2021/08/02 12:45:11;;;;;;;2.05;1.05;;;25.80;57.00;;;;;;5134319;27;20499;-74
2021/08/02 12:47:38;;;;;;;1.45;0.85;;;25.90;56.80;;;;;;5134566;27;20034;-74
2021/08/02 12:50:05;;;;;;;5.63;1.05;;;25.90;56.40;;;;;;5133851;27;20034;-75
2021/08/02 12:52:31;;;;;;;5.07;1.00;;;26.00;56.40;;;;;;5134018;27;20035;-74
2021/08/02 12:54:59;;;;;;;3.78;1.05;;;26.00;56.10;;;;;;5132953;27;20058;-74
2021/08/02 12:57:26;;;;;;;3.60;0.98;;;26.10;56.60;;;;;;5134461;27;20056;-74